createdAt,value
2023-02-20T00:00:32.985Z,8.40
2023-02-20T00:03:00.046Z,8.40
2023-02-20T00:05:26.960Z,8.30
2023-02-20T00:07:53.821Z,8.30
2023-02-20T00:10:20.796Z,8.30
2023-02-20T00:12:47.940Z,8.30
2023-02-20T00:15:16.433Z,8.30
2023-02-20T00:17:43.778Z,8.30
2023-02-20T00:20:11.207Z,8.20
2023-02-20T00:22:38.126Z,8.20
2023-02-20T00:25:05.137Z,8.20
2023-02-20T00:27:31.988Z,8.20
2023-02-20T00:29:58.905Z,8.10
2023-02-20T00:32:25.777Z,8.10
2023-02-20T00:34:52.761Z,8.10
2023-02-20T00:37:19.632Z,8.10
2023-02-20T00:39:46.488Z,8.10
2023-02-20T00:42:13.299Z,8.10
2023-02-20T00:44:40.225Z,8.10
2023-02-20T00:47:07.080Z,8.00
2023-02-20T00:49:33.950Z,8.00
2023-02-20T00:52:00.833Z,8.00
2023-02-20T00:54:27.742Z,8.00
2023-02-20T00:56:54.646Z,8.00
2023-02-20T00:59:21.801Z,8.00
2023-02-20T01:01:48.685Z,8.00
2023-02-20T01:04:15.585Z,7.90
2023-02-20T01:06:42.408Z,7.90
2023-02-20T01:09:09.362Z,7.90
2023-02-20T01:11:36.321Z,7.90
2023-02-20T01:14:03.488Z,7.90
2023-02-20T01:16:30.421Z,7.90
2023-02-20T01:18:57.452Z,7.90
2023-02-20T01:21:24.303Z,7.90
2023-02-20T01:23:51.137Z,7.90
2023-02-20T01:26:17.984Z,7.90
2023-02-20T01:28:49.869Z,7.90
2023-02-20T01:31:16.910Z,7.90
2023-02-20T01:33:43.938Z,7.90
2023-02-20T01:36:11.422Z,7.90
2023-02-20T01:38:40.392Z,7.90
2023-02-20T01:41:08.712Z,7.80
2023-02-20T01:43:35.634Z,7.90
2023-02-20T01:46:27.819Z,7.90
2023-02-20T01:49:15.551Z,7.90
2023-02-20T01:51:44.416Z,7.90
2023-02-20T01:54:14.597Z,7.90
2023-02-20T01:56:41.604Z,8.00
2023-02-20T01:59:08.533Z,8.00
2023-02-20T02:01:36.223Z,8.10
2023-02-20T02:04:05.208Z,8.10
2023-02-20T02:06:33.080Z,8.20
2023-02-20T02:09:00.214Z,8.20
2023-02-20T02:11:28.528Z,8.30
2023-02-20T02:13:55.382Z,8.30
2023-02-20T02:16:22.394Z,8.30
2023-02-20T02:19:20.352Z,8.40
2023-02-20T02:22:35.602Z,8.40
2023-02-20T02:25:26.703Z,8.40
2023-02-20T02:28:17.207Z,8.40
2023-02-20T02:30:44.324Z,8.50
2023-02-20T02:33:17.121Z,8.50
2023-02-20T02:36:02.694Z,8.50
2023-02-20T02:38:56.077Z,8.50
2023-02-20T02:41:30.363Z,8.60
2023-02-20T02:44:16.952Z,8.60
2023-02-20T02:47:01.736Z,8.60
2023-02-20T02:49:42.468Z,8.60
2023-02-20T02:52:09.481Z,8.70
2023-02-20T02:54:36.430Z,8.70
2023-02-20T02:57:26.413Z,8.70
2023-02-20T03:00:00.520Z,8.70
2023-02-20T03:02:29.643Z,8.70
2023-02-20T03:04:56.585Z,8.70
2023-02-20T03:07:23.566Z,8.70
2023-02-20T03:09:57.055Z,8.70
2023-02-20T03:12:24.012Z,8.70
2023-02-20T03:15:21.374Z,8.70
2023-02-20T03:18:10.725Z,8.70
2023-02-20T03:20:46.139Z,8.70
2023-02-20T03:23:17.332Z,8.70
2023-02-20T03:25:50.932Z,8.80
2023-02-20T03:28:41.612Z,8.80
2023-02-20T03:31:36.245Z,8.80
2023-02-20T03:34:35.470Z,8.80
2023-02-20T03:37:32.044Z,8.80
2023-02-20T03:40:18.780Z,8.80
2023-02-20T03:43:06.536Z,8.80
2023-02-20T03:45:33.593Z,8.80
2023-02-20T03:48:02.259Z,8.80
2023-02-20T03:50:29.138Z,8.90
2023-02-20T03:52:55.978Z,8.90
2023-02-20T03:55:24.633Z,8.90
2023-02-20T03:57:53.851Z,8.90
2023-02-20T04:00:22.571Z,8.90
2023-02-20T04:02:50.645Z,8.90
2023-02-20T04:05:22.713Z,9.00
2023-02-20T04:07:55.541Z,8.90
2023-02-20T04:10:24.439Z,9.00
2023-02-20T04:12:51.370Z,9.00
2023-02-20T04:15:19.008Z,9.00
2023-02-20T04:17:51.479Z,9.00
2023-02-20T04:20:18.554Z,9.00
2023-02-20T04:22:47.316Z,9.00
2023-02-20T04:25:28.628Z,9.10
2023-02-20T04:27:55.526Z,9.00
2023-02-20T04:30:22.784Z,9.10
2023-02-20T04:32:49.634Z,9.10
2023-02-20T04:35:17.942Z,9.10
2023-02-20T04:37:44.799Z,9.10
2023-02-20T04:40:12.928Z,9.10
2023-02-20T04:42:39.809Z,9.10
2023-02-20T04:45:06.971Z,9.10
2023-02-20T04:47:33.826Z,9.10
2023-02-20T04:50:00.679Z,9.10
2023-02-20T04:52:27.598Z,9.00
2023-02-20T04:54:54.472Z,9.10
2023-02-20T04:57:22.519Z,9.00
2023-02-20T04:59:49.521Z,9.00
2023-02-20T05:02:16.488Z,9.00
2023-02-20T05:04:43.428Z,9.00
2023-02-20T05:07:10.446Z,9.10
2023-02-20T05:09:37.334Z,9.10
2023-02-20T05:12:04.501Z,9.10
2023-02-20T05:14:31.389Z,9.10
2023-02-20T05:16:58.270Z,9.10
2023-02-20T05:19:25.163Z,9.00
2023-02-20T05:22:10.285Z,9.10
2023-02-20T05:24:37.252Z,9.00
2023-02-20T05:27:04.137Z,9.00
2023-02-20T05:29:31.055Z,9.00
2023-02-20T05:31:57.959Z,9.00
2023-02-20T05:34:25.958Z,9.00
2023-02-20T05:36:53.569Z,9.00
2023-02-20T05:39:20.917Z,9.00
2023-02-20T05:41:49.910Z,9.00
2023-02-20T05:44:16.763Z,9.00
2023-02-20T05:46:43.775Z,9.00
2023-02-20T05:49:10.862Z,9.00
2023-02-20T05:51:37.782Z,9.00
2023-02-20T05:54:04.962Z,9.00
2023-02-20T05:56:33.121Z,9.00
2023-02-20T05:59:00.449Z,9.00
2023-02-20T06:01:29.034Z,9.00
2023-02-20T06:03:56.038Z,9.00
2023-02-20T06:06:23.226Z,9.00
2023-02-20T06:08:52.681Z,9.00
2023-02-20T06:11:19.548Z,9.00
2023-02-20T06:13:46.462Z,9.00
2023-02-20T06:16:14.240Z,9.10
2023-02-20T06:18:41.825Z,9.10
2023-02-20T06:21:11.906Z,9.10
2023-02-20T06:23:38.944Z,9.10
2023-02-20T06:26:06.474Z,9.10
2023-02-20T06:28:33.560Z,9.10
2023-02-20T06:31:02.056Z,9.10
2023-02-20T06:33:29.523Z,9.10
2023-02-20T06:35:56.612Z,9.10
2023-02-20T06:38:24.061Z,9.10
2023-02-20T06:40:51.014Z,9.10
2023-02-20T06:43:19.766Z,9.10
2023-02-20T06:45:46.697Z,9.10
2023-02-20T06:48:17.492Z,9.10
2023-02-20T06:50:44.430Z,9.10
2023-02-20T06:53:11.362Z,9.10
2023-02-20T06:55:38.177Z,9.10
2023-02-20T06:58:05.044Z,9.10
2023-02-20T07:00:31.972Z,9.20
2023-02-20T07:02:58.945Z,9.20
2023-02-20T07:05:25.889Z,9.20
2023-02-20T07:07:52.741Z,9.20
2023-02-20T07:10:19.582Z,9.20
2023-02-20T07:12:46.524Z,9.20
2023-02-20T07:15:13.409Z,9.20
2023-02-20T07:17:40.480Z,9.20
2023-02-20T07:20:11.658Z,9.20
2023-02-20T07:22:38.740Z,9.20
2023-02-20T07:25:06.244Z,9.20
2023-02-20T07:27:33.166Z,9.20
2023-02-20T07:30:04.126Z,9.20
2023-02-20T07:32:31.070Z,9.20
2023-02-20T07:35:04.666Z,9.20
2023-02-20T07:37:33.165Z,9.20
2023-02-20T07:40:00.154Z,9.20
2023-02-20T07:42:27.369Z,9.20
2023-02-20T07:44:54.238Z,9.20
2023-02-20T07:47:21.205Z,9.20
2023-02-20T07:49:48.464Z,9.20
2023-02-20T07:52:15.383Z,9.20
2023-02-20T07:54:43.022Z,9.20
2023-02-20T07:57:09.960Z,9.20
2023-02-20T07:59:36.770Z,9.20
2023-02-20T08:02:03.717Z,9.20
2023-02-20T08:04:30.583Z,9.20
2023-02-20T08:06:57.515Z,9.20
2023-02-20T08:09:24.400Z,9.10
2023-02-20T08:11:51.275Z,9.20
2023-02-20T08:14:18.347Z,9.10
2023-02-20T08:16:45.319Z,9.20
2023-02-20T08:19:12.280Z,9.10
2023-02-20T08:21:39.202Z,9.20
2023-02-20T08:24:07.132Z,9.20
2023-02-20T08:26:34.981Z,9.30
2023-02-20T08:29:01.934Z,9.40
2023-02-20T08:31:33.189Z,9.40
2023-02-20T08:34:00.534Z,9.50
2023-02-20T08:36:27.631Z,9.60
2023-02-20T08:38:55.183Z,9.60
2023-02-20T08:41:22.173Z,9.70
2023-02-20T08:43:49.313Z,9.80
2023-02-20T08:46:16.853Z,9.80
2023-02-20T08:48:44.182Z,9.90
2023-02-20T08:51:12.345Z,9.90
2023-02-20T08:53:39.768Z,9.90
2023-02-20T08:56:07.378Z,10.00
2023-02-20T08:58:34.315Z,10.00
2023-02-20T09:01:01.286Z,10.00
2023-02-20T09:03:29.530Z,10.10
2023-02-20T09:05:56.530Z,10.10
2023-02-20T09:08:23.460Z,10.10
2023-02-20T09:10:50.445Z,10.10
2023-02-20T09:13:17.559Z,10.10
2023-02-20T09:15:44.533Z,10.20
2023-02-20T09:18:13.538Z,10.10
2023-02-20T09:20:40.660Z,10.10
2023-02-20T09:23:07.806Z,10.20
2023-02-20T09:25:34.891Z,10.20
2023-02-20T09:28:01.818Z,10.30
2023-02-20T09:30:28.793Z,10.30
2023-02-20T09:32:55.747Z,10.30
2023-02-20T09:35:29.965Z,10.40
2023-02-20T09:37:56.937Z,10.50
2023-02-20T09:40:25.232Z,10.60
2023-02-20T09:43:16.742Z,10.60
2023-02-20T09:45:49.407Z,10.60
2023-02-20T09:48:22.084Z,10.70
2023-02-20T09:50:57.467Z,10.70
2023-02-20T09:53:50.767Z,10.80
2023-02-20T09:56:21.324Z,10.80
2023-02-20T09:58:57.158Z,10.80
2023-02-20T10:01:24.065Z,10.90
2023-02-20T10:04:07.951Z,10.90
2023-02-20T10:06:35.190Z,10.90
2023-02-20T10:09:03.087Z,11.00
2023-02-20T10:11:58.569Z,11.00
2023-02-20T10:14:34.740Z,11.00
2023-02-20T10:17:28.912Z,11.10
2023-02-20T10:20:03.280Z,11.10
2023-02-20T10:22:35.421Z,11.20
2023-02-20T10:25:22.907Z,11.30
2023-02-20T10:28:11.525Z,11.30
2023-02-20T10:30:43.074Z,11.30
2023-02-20T10:33:09.977Z,11.40
2023-02-20T10:35:42.642Z,11.40
2023-02-20T10:38:11.540Z,11.50
2023-02-20T10:40:45.753Z,11.50
2023-02-20T10:43:29.207Z,11.50
2023-02-20T10:46:06.451Z,11.50
2023-02-20T10:48:33.764Z,11.60
2023-02-20T10:51:22.265Z,11.60
2023-02-20T10:54:09.339Z,11.60
2023-02-20T10:57:10.472Z,11.70
2023-02-20T10:59:40.488Z,11.70
2023-02-20T11:02:13.294Z,11.80
2023-02-20T11:04:41.387Z,11.80
2023-02-20T11:07:16.246Z,11.90
2023-02-20T11:09:43.296Z,12.00
2023-02-20T11:12:27.089Z,12.10
2023-02-20T11:14:55.721Z,12.10
2023-02-20T11:17:26.349Z,12.20
2023-02-20T11:20:05.112Z,12.20
2023-02-20T11:22:38.954Z,12.30
2023-02-20T11:25:21.773Z,12.30
2023-02-20T11:27:54.740Z,12.40
2023-02-20T11:30:32.197Z,12.50
2023-02-20T11:33:05.982Z,12.50
2023-02-20T11:35:54.422Z,12.50
2023-02-20T11:38:29.039Z,12.60
2023-02-20T11:41:01.837Z,12.60
2023-02-20T11:44:00.168Z,12.60
2023-02-20T11:46:27.848Z,12.60
2023-02-20T11:48:54.937Z,12.60
2023-02-20T11:51:46.980Z,12.60
2023-02-20T11:54:21.833Z,12.60
2023-02-20T11:57:27.546Z,12.60
2023-02-20T12:00:11.910Z,12.60
2023-02-20T12:02:57.021Z,12.70
2023-02-20T12:05:41.273Z,12.70
2023-02-20T12:08:36.204Z,12.80
2023-02-20T12:11:14.420Z,12.90
2023-02-20T12:13:46.092Z,12.90
2023-02-20T12:16:39.029Z,13.00
2023-02-20T12:19:19.010Z,13.00
2023-02-20T12:22:04.478Z,13.10
2023-02-20T12:24:41.003Z,13.10
2023-02-20T12:27:44.593Z,13.20
2023-02-20T12:30:39.339Z,13.30
2023-02-20T12:33:28.713Z,13.40
2023-02-20T12:36:15.935Z,13.40
2023-02-20T12:38:59.721Z,13.50
2023-02-20T12:41:48.251Z,13.50
2023-02-20T12:44:35.974Z,13.40
2023-02-20T12:47:13.561Z,13.40
2023-02-20T12:49:54.470Z,13.40
2023-02-20T12:52:39.357Z,13.40
2023-02-20T12:55:22.728Z,13.40
2023-02-20T12:58:16.992Z,13.40
2023-02-20T13:00:46.825Z,13.40
2023-02-20T13:03:23.674Z,13.40
2023-02-20T13:05:51.007Z,13.50
2023-02-20T13:08:34.868Z,13.40
2023-02-20T13:11:06.111Z,13.50
2023-02-20T13:13:55.618Z,13.40
2023-02-20T13:16:31.894Z,13.40
2023-02-20T13:19:28.923Z,13.40
2023-02-20T13:21:56.255Z,13.40
2023-02-20T13:24:23.087Z,13.40
2023-02-20T13:26:54.247Z,13.50
2023-02-20T13:29:28.504Z,13.50
2023-02-20T13:32:00.239Z,13.50
2023-02-20T13:34:31.770Z,13.50
2023-02-20T13:36:58.875Z,13.50
2023-02-20T13:39:32.530Z,13.50
2023-02-20T13:42:04.687Z,13.50
2023-02-20T13:44:41.604Z,13.50
2023-02-20T13:47:27.724Z,13.50
2023-02-20T13:49:58.916Z,13.60
2023-02-20T13:52:41.862Z,13.60
2023-02-20T13:55:11.771Z,13.70
2023-02-20T13:57:47.132Z,13.80
2023-02-20T14:00:26.775Z,13.80
2023-02-20T14:02:53.768Z,13.80
2023-02-20T14:05:31.873Z,13.80
2023-02-20T14:07:59.472Z,13.80
2023-02-20T14:10:29.891Z,13.80
2023-02-20T14:13:04.047Z,13.80
2023-02-20T14:15:32.971Z,13.80
2023-02-20T14:18:00.115Z,13.80
2023-02-20T14:20:36.605Z,13.80
2023-02-20T14:23:16.067Z,13.80
2023-02-20T14:25:59.622Z,13.80
2023-02-20T14:28:30.632Z,13.80
2023-02-20T14:31:27.935Z,13.70
2023-02-20T14:33:58.611Z,13.70
2023-02-20T14:36:56.296Z,13.70
2023-02-20T14:39:41.336Z,13.80
2023-02-20T14:42:30.278Z,13.90
2023-02-20T14:45:03.393Z,13.80
2023-02-20T14:47:31.900Z,13.80
2023-02-20T14:50:15.678Z,13.80
2023-02-20T14:52:42.766Z,13.80
2023-02-20T14:55:16.330Z,13.80
2023-02-20T14:57:43.332Z,13.70
2023-02-20T15:00:20.773Z,13.70
2023-02-20T15:02:49.294Z,13.60
2023-02-20T15:05:19.800Z,13.50
2023-02-20T15:07:46.879Z,13.50
2023-02-20T15:10:36.521Z,13.50
2023-02-20T15:13:14.714Z,13.40
2023-02-20T15:15:46.685Z,13.50
2023-02-20T15:18:30.046Z,13.50
2023-02-20T15:20:56.906Z,13.50
2023-02-20T15:23:35.367Z,13.50
2023-02-20T15:26:31.639Z,13.50
2023-02-20T15:29:27.215Z,13.60
2023-02-20T15:31:59.084Z,13.60
2023-02-20T15:34:31.141Z,13.60
2023-02-20T15:36:59.069Z,13.60
2023-02-20T15:39:26.079Z,13.60
2023-02-20T15:44:25.460Z,13.60
2023-02-20T15:46:52.473Z,13.50
2023-02-20T15:49:21.111Z,13.50
2023-02-20T15:51:48.633Z,13.50
2023-02-20T15:54:17.197Z,13.40
2023-02-20T15:56:44.175Z,13.40
2023-02-20T15:59:12.302Z,13.40
2023-02-20T16:01:39.994Z,13.40
2023-02-20T16:04:07.957Z,13.30
2023-02-20T16:06:35.238Z,13.40
2023-02-20T16:09:02.204Z,13.30
2023-02-20T16:11:38.802Z,13.30
2023-02-20T16:14:05.707Z,13.30
2023-02-20T16:16:40.872Z,13.20
2023-02-20T16:19:30.552Z,13.20
2023-02-20T16:22:00.792Z,13.20
2023-02-20T16:24:27.809Z,13.20
2023-02-20T16:26:54.774Z,13.10
2023-02-20T16:29:28.076Z,13.10
2023-02-20T16:32:01.111Z,13.00
2023-02-20T16:34:31.538Z,13.00
2023-02-20T16:36:59.234Z,13.00
2023-02-20T16:39:27.427Z,13.00
2023-02-20T16:41:55.653Z,13.00
2023-02-20T16:44:49.593Z,13.00
2023-02-20T16:47:21.462Z,12.90
2023-02-20T16:49:48.896Z,12.90
2023-02-20T16:52:27.864Z,12.90
2023-02-20T16:54:55.219Z,12.80
2023-02-20T16:57:23.906Z,12.80
2023-02-20T16:59:55.059Z,12.80
2023-02-20T17:02:24.725Z,12.80
2023-02-20T17:04:53.255Z,12.70
2023-02-20T17:07:20.433Z,12.70
2023-02-20T17:09:47.446Z,12.70
2023-02-20T17:12:16.934Z,12.60
2023-02-20T17:14:44.054Z,12.60
2023-02-20T17:17:11.076Z,12.50
2023-02-20T17:19:39.161Z,12.50
2023-02-20T17:22:06.651Z,12.50
2023-02-20T17:24:33.610Z,12.40
2023-02-20T17:27:01.211Z,12.40
2023-02-20T17:29:28.341Z,12.40
2023-02-20T17:31:55.478Z,12.30
2023-02-20T17:34:22.448Z,12.20
2023-02-20T17:36:49.967Z,12.20
2023-02-20T17:39:18.128Z,12.20
2023-02-20T17:41:45.186Z,12.10
2023-02-20T17:44:12.442Z,12.10
2023-02-20T17:46:39.467Z,12.00
2023-02-20T17:49:06.761Z,12.00
2023-02-20T17:51:33.901Z,12.00
2023-02-20T17:54:03.245Z,11.90
2023-02-20T17:56:30.586Z,11.90
2023-02-20T17:58:57.511Z,11.90
2023-02-20T18:01:27.576Z,11.80
2023-02-20T18:07:46.439Z,11.80
2023-02-20T18:10:13.460Z,11.70
2023-02-20T18:12:42.242Z,11.70
2023-02-20T18:15:09.377Z,11.70
2023-02-20T18:17:37.950Z,11.60
2023-02-20T18:20:05.328Z,11.60
2023-02-20T18:22:32.264Z,11.60
2023-02-20T18:24:59.297Z,11.60
2023-02-20T18:27:32.287Z,11.50
2023-02-20T18:30:04.083Z,11.50
2023-02-20T18:32:31.230Z,11.50
2023-02-20T18:34:58.448Z,11.50
2023-02-20T18:37:25.558Z,11.50
2023-02-20T18:39:52.537Z,11.50
2023-02-20T18:42:19.478Z,11.50
2023-02-20T18:44:47.412Z,11.50
2023-02-20T18:47:14.941Z,11.40
2023-02-20T18:49:42.085Z,11.50
2023-02-20T18:52:11.639Z,11.40
2023-02-20T18:54:38.643Z,11.40
2023-02-20T18:57:05.558Z,11.40
2023-02-20T18:59:32.699Z,11.40
2023-02-20T19:02:00.957Z,11.40
2023-02-20T19:04:27.952Z,11.40
2023-02-20T19:06:54.996Z,11.40
2023-02-20T19:09:25.201Z,11.40
2023-02-20T19:11:53.438Z,11.40
2023-02-20T19:14:20.631Z,11.30
2023-02-20T19:16:52.235Z,11.40
2023-02-20T19:19:23.897Z,11.30
2023-02-20T19:21:51.479Z,11.40
2023-02-20T19:24:18.472Z,11.40
2023-02-20T19:26:45.420Z,11.40
2023-02-20T19:29:13.361Z,11.40
2023-02-20T19:31:40.451Z,11.40
2023-02-20T19:34:07.605Z,11.40
2023-02-20T19:36:34.742Z,11.30
2023-02-20T19:39:01.695Z,11.30
2023-02-20T19:41:28.815Z,11.20
2023-02-20T19:43:56.033Z,11.20
2023-02-20T19:46:25.391Z,11.20
2023-02-20T19:48:52.410Z,11.20
2023-02-20T19:51:20.167Z,11.10
2023-02-20T19:53:47.211Z,11.10
2023-02-20T19:56:14.436Z,11.10
2023-02-20T19:58:41.629Z,11.10
2023-02-20T20:01:18.145Z,11.10
2023-02-20T20:03:48.512Z,11.00
2023-02-20T20:06:16.633Z,11.00
2023-02-20T20:09:10.098Z,11.00
2023-02-20T20:11:35.806Z,10.90
2023-02-20T20:14:06.175Z,10.90
2023-02-20T20:16:35.290Z,10.90
2023-02-20T20:19:02.262Z,10.80
2023-02-20T20:21:29.162Z,10.80
2023-02-20T20:23:56.224Z,10.80
2023-02-20T20:26:27.473Z,10.70
2023-02-20T20:28:54.908Z,10.70
2023-02-20T20:31:22.651Z,10.70
2023-02-20T20:33:49.733Z,10.60
2023-02-20T20:36:16.964Z,10.60
2023-02-20T20:38:43.960Z,10.60
2023-02-20T20:41:11.784Z,10.60
2023-02-20T20:43:39.026Z,10.50
2023-02-20T20:46:06.046Z,10.50
2023-02-20T20:48:34.905Z,10.50
2023-02-20T20:51:02.011Z,10.40
2023-02-20T20:53:28.959Z,10.40
2023-02-20T20:55:56.253Z,10.40
2023-02-20T20:58:23.116Z,10.40
2023-02-20T21:00:50.234Z,10.40
2023-02-20T21:03:17.384Z,10.40
2023-02-20T21:05:44.502Z,10.40
2023-02-20T21:08:11.447Z,10.30
2023-02-20T21:10:38.451Z,10.30
2023-02-20T21:13:05.439Z,10.30
2023-02-20T21:15:34.371Z,10.30
2023-02-20T21:18:01.596Z,10.30
2023-02-20T21:20:30.726Z,10.30
2023-02-20T21:22:59.122Z,10.20
2023-02-20T21:25:26.241Z,10.30
2023-02-20T21:27:53.994Z,10.30
2023-02-20T21:30:21.433Z,10.20
2023-02-20T21:32:48.384Z,10.20
2023-02-20T21:35:18.811Z,10.20
2023-02-20T21:37:45.942Z,10.20
2023-02-20T21:40:12.953Z,10.20
2023-02-20T21:42:58.175Z,10.20
2023-02-20T21:45:25.083Z,10.30
2023-02-20T21:47:52.223Z,10.30
2023-02-20T21:50:22.183Z,10.20
2023-02-20T21:52:52.581Z,10.30
2023-02-20T21:55:19.866Z,10.30
2023-02-20T21:57:47.984Z,10.20
2023-02-20T22:00:15.254Z,10.30
2023-02-20T22:02:42.129Z,10.30
2023-02-20T22:05:09.367Z,10.20
2023-02-20T22:07:55.051Z,10.30
2023-02-20T22:10:40.772Z,10.30
2023-02-20T22:13:26.043Z,10.30
2023-02-20T22:16:14.245Z,10.30
2023-02-20T22:18:59.577Z,10.40
2023-02-20T22:21:45.439Z,10.40
2023-02-20T22:24:38.282Z,10.30
2023-02-20T22:27:24.851Z,10.30
2023-02-20T22:30:10.699Z,10.30
2023-02-20T22:32:56.549Z,10.30
2023-02-20T22:35:42.301Z,10.30
2023-02-20T22:38:28.131Z,10.20
2023-02-20T22:41:13.779Z,10.20
2023-02-20T22:43:59.129Z,10.20
2023-02-20T22:46:44.973Z,10.20
2023-02-20T22:49:30.066Z,10.20
2023-02-20T22:52:15.244Z,10.20
2023-02-20T22:55:06.624Z,10.20
2023-02-20T22:57:52.370Z,10.20
2023-02-20T23:00:38.280Z,10.20
2023-02-20T23:03:23.905Z,10.20
2023-02-20T23:06:17.475Z,10.30
2023-02-20T23:09:04.446Z,10.30
2023-02-20T23:11:55.213Z,10.30
2023-02-20T23:14:40.352Z,10.30
2023-02-20T23:17:35.622Z,10.40
2023-02-20T23:20:27.349Z,10.40
2023-02-20T23:23:13.140Z,10.40
2023-02-20T23:25:58.917Z,10.40
2023-02-20T23:28:44.169Z,10.40
2023-02-20T23:31:29.369Z,10.40
2023-02-20T23:34:14.857Z,10.50
2023-02-20T23:37:05.084Z,10.50
2023-02-20T23:39:50.266Z,10.50
2023-02-20T23:42:36.437Z,10.60
2023-02-20T23:45:22.442Z,10.50
2023-02-20T23:48:07.888Z,10.60
2023-02-20T23:50:53.091Z,10.60
2023-02-20T23:53:38.363Z,10.60
2023-02-20T23:56:24.562Z,10.60
2023-02-20T23:59:09.900Z,10.60
